createdAt,value
2023-03-27T00:02:09.231Z,0.95
2023-03-27T00:04:36.084Z,0.80
2023-03-27T00:07:03.465Z,0.88
2023-03-27T00:09:32.770Z,0.80
2023-03-27T00:12:01.014Z,0.82
2023-03-27T00:14:28.677Z,0.77
2023-03-27T00:16:57.325Z,1.08
2023-03-27T00:19:25.061Z,1.10
2023-03-27T00:21:53.297Z,1.27
2023-03-27T00:24:20.063Z,1.10
2023-03-27T00:26:47.527Z,1.27
2023-03-27T00:29:14.321Z,1.50
2023-03-27T00:31:41.505Z,1.55
2023-03-27T00:34:08.301Z,1.33
2023-03-27T00:36:35.326Z,1.38
2023-03-27T00:39:02.137Z,1.17
2023-03-27T00:41:28.851Z,1.30
2023-03-27T00:43:58.221Z,1.02
2023-03-27T00:46:31.733Z,1.40
2023-03-27T00:49:03.832Z,1.95
2023-03-27T00:51:31.242Z,0.70
2023-03-27T00:53:59.518Z,1.35
2023-03-27T00:56:26.596Z,1.35
2023-03-27T00:59:01.044Z,1.95
2023-03-27T01:01:29.757Z,2.33
2023-03-27T01:04:02.029Z,2.90
2023-03-27T01:06:31.244Z,2.83
2023-03-27T01:08:58.902Z,2.35
2023-03-27T01:11:37.684Z,1.85
2023-03-27T01:14:16.928Z,3.38
2023-03-27T01:17:14.536Z,1.30
2023-03-27T01:19:56.623Z,2.10
2023-03-27T01:22:57.158Z,2.08
2023-03-27T01:25:39.948Z,1.65
2023-03-27T01:28:46.592Z,1.92
2023-03-27T01:31:33.565Z,1.63
2023-03-27T01:34:29.434Z,1.52
2023-03-27T01:37:24.957Z,1.55
2023-03-27T01:40:16.687Z,1.45
2023-03-27T01:42:46.346Z,1.40
2023-03-27T01:45:27.829Z,1.88
2023-03-27T01:48:10.076Z,1.85
2023-03-27T01:51:27.872Z,1.83
2023-03-27T01:54:03.214Z,1.45
2023-03-27T01:56:34.147Z,1.40
2023-03-27T01:59:13.205Z,1.58
2023-03-27T02:01:44.645Z,1.27
2023-03-27T02:04:18.315Z,2.20
2023-03-27T02:06:51.129Z,2.15
2023-03-27T02:09:26.534Z,2.22
2023-03-27T02:12:01.147Z,2.30
2023-03-27T02:14:34.603Z,1.98
2023-03-27T02:17:10.335Z,2.65
2023-03-27T02:19:47.481Z,2.10
2023-03-27T02:22:14.842Z,2.42
2023-03-27T02:24:43.610Z,3.10
2023-03-27T02:27:30.850Z,3.10
2023-03-27T02:29:57.878Z,2.55
2023-03-27T02:32:37.148Z,3.30
2023-03-27T02:35:22.947Z,3.78
2023-03-27T02:38:09.206Z,3.78
2023-03-27T02:40:56.439Z,3.45
2023-03-27T02:43:36.966Z,3.28
2023-03-27T02:46:19.703Z,3.10
2023-03-27T02:48:52.347Z,3.42
2023-03-27T02:51:49.254Z,3.00
2023-03-27T02:54:22.944Z,2.60
2023-03-27T02:56:54.419Z,2.35
2023-03-27T02:59:45.373Z,2.15
2023-03-27T03:02:20.314Z,1.27
2023-03-27T03:04:57.050Z,1.48
2023-03-27T03:07:27.967Z,1.80
2023-03-27T03:09:54.774Z,1.25
2023-03-27T03:12:23.141Z,2.08
2023-03-27T03:14:50.082Z,1.92
2023-03-27T03:17:17.380Z,2.15
2023-03-27T03:19:44.146Z,2.17
2023-03-27T03:22:11.455Z,2.47
2023-03-27T03:24:41.984Z,2.53
2023-03-27T03:27:10.202Z,3.38
2023-03-27T03:29:37.505Z,3.42
2023-03-27T03:32:05.838Z,3.33
2023-03-27T03:34:35.636Z,2.83
2023-03-27T03:37:02.972Z,3.63
2023-03-27T03:39:29.985Z,3.45
2023-03-27T03:41:57.071Z,3.97
2023-03-27T03:44:23.914Z,4.10
2023-03-27T03:46:51.061Z,4.18
2023-03-27T03:49:17.818Z,4.43
2023-03-27T03:51:44.955Z,5.38
2023-03-27T03:54:11.986Z,4.45
2023-03-27T03:56:41.541Z,4.55
2023-03-27T03:59:10.113Z,5.90
2023-03-27T04:01:37.735Z,4.80
2023-03-27T04:04:04.917Z,4.63
2023-03-27T04:06:32.686Z,4.95
2023-03-27T04:08:59.537Z,5.30
2023-03-27T04:11:26.653Z,5.80
2023-03-27T04:13:53.452Z,6.25
2023-03-27T04:16:21.246Z,6.85
2023-03-27T04:18:50.667Z,6.65
2023-03-27T04:21:18.113Z,7.30
2023-03-27T04:23:48.322Z,7.97
2023-03-27T04:26:16.067Z,8.00
2023-03-27T04:28:43.445Z,8.27
2023-03-27T04:31:10.980Z,8.25
2023-03-27T04:33:39.816Z,8.00
2023-03-27T04:36:08.545Z,7.68
2023-03-27T04:38:39.670Z,7.03
2023-03-27T04:41:07.611Z,7.88
2023-03-27T04:43:40.156Z,7.82
2023-03-27T04:46:08.095Z,6.87
2023-03-27T04:48:38.546Z,6.55
2023-03-27T04:51:09.274Z,6.07
2023-03-27T04:53:37.596Z,5.95
2023-03-27T04:56:05.675Z,5.47
2023-03-27T05:01:02.291Z,7.28
2023-03-27T05:03:29.374Z,6.18
2023-03-27T05:05:56.511Z,6.53
2023-03-27T05:08:23.320Z,6.38
2023-03-27T05:10:50.748Z,5.95
2023-03-27T05:13:17.642Z,5.35
2023-03-27T05:15:44.814Z,5.13
2023-03-27T05:18:12.667Z,4.03
2023-03-27T05:20:39.769Z,3.85
2023-03-27T05:23:06.614Z,3.60
2023-03-27T05:25:33.974Z,4.40
2023-03-27T05:28:01.121Z,3.58
2023-03-27T05:30:28.807Z,2.35
2023-03-27T05:32:59.374Z,2.97
2023-03-27T05:35:28.649Z,2.75
2023-03-27T05:37:57.419Z,2.92
2023-03-27T05:40:27.014Z,2.90
2023-03-27T05:42:55.651Z,3.08
2023-03-27T05:45:23.965Z,2.67
2023-03-27T05:47:57.798Z,3.15
2023-03-27T05:50:28.759Z,3.28
2023-03-27T05:52:57.013Z,2.70
2023-03-27T05:55:27.433Z,3.28
2023-03-27T05:57:55.034Z,3.88
2023-03-27T06:00:26.267Z,3.70
2023-03-27T06:03:00.938Z,3.17
2023-03-27T06:05:29.630Z,2.53
2023-03-27T06:08:00.105Z,2.75
2023-03-27T06:10:29.049Z,3.17
2023-03-27T06:13:12.965Z,2.72
2023-03-27T06:15:42.055Z,2.00
2023-03-27T06:18:09.900Z,1.60
2023-03-27T06:20:38.086Z,1.60
2023-03-27T06:23:06.545Z,1.52
2023-03-27T06:25:35.571Z,1.90
2023-03-27T06:28:04.935Z,1.60
2023-03-27T06:30:32.067Z,1.55
2023-03-27T06:33:00.171Z,1.80
2023-03-27T06:35:29.947Z,1.65
2023-03-27T06:37:59.181Z,1.70
2023-03-27T06:40:28.502Z,1.70
2023-03-27T06:42:58.252Z,1.60
2023-03-27T06:45:28.428Z,1.50
2023-03-27T06:48:12.993Z,1.73
2023-03-27T06:50:46.695Z,1.30
2023-03-27T06:53:26.605Z,1.60
2023-03-27T06:55:56.527Z,2.00
2023-03-27T06:58:23.926Z,1.98
2023-03-27T07:00:51.292Z,2.80
2023-03-27T07:03:20.714Z,2.35
2023-03-27T07:05:49.075Z,2.25
2023-03-27T07:08:24.204Z,2.13
2023-03-27T07:11:07.944Z,2.20
2023-03-27T07:13:37.480Z,1.63
2023-03-27T07:16:05.350Z,1.42
2023-03-27T07:18:32.351Z,1.35
2023-03-27T07:21:02.363Z,2.00
2023-03-27T07:23:29.293Z,1.50
2023-03-27T07:26:00.584Z,2.17
2023-03-27T07:28:27.637Z,2.25
2023-03-27T07:30:55.617Z,1.75
2023-03-27T07:33:22.762Z,2.40
2023-03-27T07:35:49.937Z,2.55
2023-03-27T07:38:17.544Z,1.90
2023-03-27T07:40:46.272Z,1.70
2023-03-27T07:43:13.710Z,1.58
2023-03-27T07:45:41.564Z,1.90
2023-03-27T07:48:11.469Z,1.73
2023-03-27T07:50:39.085Z,1.55
2023-03-27T07:53:09.025Z,2.10
2023-03-27T07:55:41.706Z,2.00
2023-03-27T07:58:08.763Z,2.50
2023-03-27T08:00:36.254Z,2.25
2023-03-27T08:03:11.632Z,1.63
2023-03-27T08:05:38.938Z,1.60
2023-03-27T08:08:05.856Z,2.20
2023-03-27T08:10:33.169Z,2.22
2023-03-27T08:13:00.925Z,2.08
2023-03-27T08:15:28.054Z,1.60
2023-03-27T08:17:56.783Z,1.60
2023-03-27T08:20:24.310Z,1.95
2023-03-27T08:22:54.226Z,2.30
2023-03-27T08:25:24.421Z,1.77
2023-03-27T08:27:51.232Z,2.25
2023-03-27T08:30:19.094Z,2.45
2023-03-27T08:32:46.390Z,2.25
2023-03-27T08:35:13.677Z,2.53
2023-03-27T08:37:41.616Z,1.70
2023-03-27T08:40:18.972Z,2.40
2023-03-27T08:42:49.735Z,2.20
2023-03-27T08:45:29.818Z,2.13
2023-03-27T08:48:08.175Z,2.75
2023-03-27T08:50:48.208Z,2.58
2023-03-27T08:53:33.088Z,2.65
2023-03-27T08:56:01.305Z,2.03
2023-03-27T08:58:28.151Z,2.58
2023-03-27T09:01:08.764Z,1.98
2023-03-27T09:03:58.468Z,2.30
2023-03-27T09:06:30.191Z,1.83
2023-03-27T09:09:02.528Z,2.30
2023-03-27T09:11:43.191Z,2.78
2023-03-27T09:14:34.554Z,1.55
2023-03-27T09:17:09.818Z,1.85
2023-03-27T09:19:48.816Z,1.90
2023-03-27T09:22:25.095Z,2.00
2023-03-27T09:24:54.982Z,2.55
2023-03-27T09:27:29.379Z,2.42
2023-03-27T09:30:04.883Z,2.28
2023-03-27T09:32:34.158Z,2.50
2023-03-27T09:35:01.238Z,2.70
2023-03-27T09:37:28.580Z,2.17
2023-03-27T09:39:56.637Z,2.05
2023-03-27T09:42:28.872Z,2.25
2023-03-27T09:44:58.638Z,2.30
2023-03-27T09:47:32.972Z,2.70
2023-03-27T09:50:39.380Z,3.47
2023-03-27T09:53:07.810Z,2.95
2023-03-27T09:55:35.330Z,3.30
2023-03-27T09:58:24.826Z,3.05
2023-03-27T10:01:13.831Z,2.45
2023-03-27T10:03:48.614Z,2.92
2023-03-27T10:06:38.691Z,2.75
2023-03-27T10:09:34.580Z,2.90
2023-03-27T10:12:09.428Z,2.50
2023-03-27T10:14:46.133Z,2.50
2023-03-27T10:17:24.582Z,2.17
2023-03-27T10:19:57.101Z,2.03
2023-03-27T10:22:34.274Z,1.75
2023-03-27T10:25:04.903Z,1.40
2023-03-27T10:27:35.853Z,1.40
2023-03-27T10:30:03.362Z,1.10
2023-03-27T10:32:51.598Z,1.08
2023-03-27T10:35:36.973Z,0.90
2023-03-27T10:38:11.421Z,1.15
2023-03-27T10:40:40.616Z,0.80
2023-03-27T10:43:20.957Z,0.90
2023-03-27T10:45:56.782Z,0.80
2023-03-27T10:48:35.419Z,0.82
2023-03-27T10:51:05.781Z,1.33
2023-03-27T10:53:50.965Z,1.35
2023-03-27T10:56:34.777Z,1.00
2023-03-27T10:59:08.609Z,1.42
2023-03-27T11:01:42.344Z,1.60
2023-03-27T11:04:21.824Z,1.10
2023-03-27T11:06:53.969Z,1.30
2023-03-27T11:09:51.950Z,0.93
2023-03-27T11:12:21.312Z,0.98
2023-03-27T11:14:57.438Z,1.40
2023-03-27T11:17:30.245Z,1.25
2023-03-27T11:20:07.463Z,1.13
2023-03-27T11:22:42.413Z,0.80
2023-03-27T11:25:14.999Z,0.80
2023-03-27T11:27:58.860Z,0.67
2023-03-27T11:30:37.004Z,1.10
2023-03-27T11:33:29.354Z,0.73
2023-03-27T11:36:34.782Z,0.80
2023-03-27T11:39:42.356Z,0.80
2023-03-27T11:42:20.612Z,1.00
2023-03-27T11:44:48.230Z,1.00
2023-03-27T11:47:30.057Z,1.30
2023-03-27T11:50:28.271Z,1.05
2023-03-27T11:53:01.391Z,1.50
2023-03-27T11:55:57.962Z,1.48
2023-03-27T11:58:43.916Z,1.25
2023-03-27T12:01:23.368Z,1.45
2023-03-27T12:03:53.196Z,1.50
2023-03-27T12:06:51.323Z,1.90
2023-03-27T12:10:02.361Z,1.65
2023-03-27T12:12:52.289Z,2.72
2023-03-27T12:15:31.335Z,3.00
2023-03-27T12:18:13.636Z,3.28
2023-03-27T12:21:04.748Z,4.63
2023-03-27T12:23:39.925Z,3.83
2023-03-27T12:26:23.526Z,4.00
2023-03-27T12:29:23.329Z,5.05
2023-03-27T12:32:24.517Z,5.88
2023-03-27T12:35:10.666Z,6.80
2023-03-27T12:37:50.559Z,8.10
2023-03-27T12:40:40.538Z,9.10
2023-03-27T12:43:27.532Z,8.82
2023-03-27T12:46:12.571Z,8.57
2023-03-27T12:48:57.924Z,6.78
2023-03-27T12:51:47.623Z,6.65
2023-03-27T12:54:26.854Z,5.95
2023-03-27T12:57:06.064Z,5.72
2023-03-27T12:59:49.517Z,4.47
2023-03-27T13:02:16.958Z,4.22
2023-03-27T13:05:27.586Z,3.47
2023-03-27T13:08:07.371Z,2.38
2023-03-27T13:10:44.437Z,2.40
2023-03-27T13:13:47.911Z,2.42
2023-03-27T13:16:42.996Z,1.85
2023-03-27T13:19:19.040Z,2.22
2023-03-27T13:21:48.450Z,1.60
2023-03-27T13:24:45.747Z,1.50
2023-03-27T13:27:32.308Z,1.30
2023-03-27T13:29:59.490Z,1.20
2023-03-27T13:32:35.573Z,0.95
2023-03-27T13:35:23.992Z,1.38
2023-03-27T13:38:00.832Z,1.23
2023-03-27T13:40:36.745Z,1.15
2023-03-27T13:43:30.724Z,1.05
2023-03-27T13:46:05.058Z,1.40
2023-03-27T13:49:19.526Z,1.35
2023-03-27T13:52:14.288Z,1.33
2023-03-27T13:57:47.006Z,1.25
2023-03-27T14:00:44.922Z,1.33
2023-03-27T14:03:49.834Z,1.45
2023-03-27T14:09:11.563Z,2.38
2023-03-27T14:12:06.913Z,1.73
2023-03-27T14:14:39.742Z,2.28
2023-03-27T14:17:25.572Z,2.20
2023-03-27T14:20:30.882Z,2.00
2023-03-27T14:23:00.644Z,1.95
2023-03-27T14:25:34.227Z,2.35
2023-03-27T14:28:01.391Z,2.47
2023-03-27T14:30:42.638Z,2.65
2023-03-27T14:33:10.120Z,2.20
2023-03-27T14:35:40.494Z,2.45
2023-03-27T14:38:24.892Z,2.03
2023-03-27T14:40:57.143Z,2.38
2023-03-27T14:43:28.080Z,1.35
2023-03-27T14:46:16.462Z,1.40
2023-03-27T14:48:47.953Z,1.73
2023-03-27T14:51:19.605Z,2.03
2023-03-27T14:53:49.535Z,1.77
2023-03-27T14:56:31.442Z,1.92
2023-03-27T14:59:00.895Z,1.58
2023-03-27T15:01:31.960Z,2.10
2023-03-27T15:04:03.279Z,1.48
2023-03-27T15:06:36.369Z,1.75
2023-03-27T15:09:05.686Z,1.93
2023-03-27T15:11:38.958Z,1.67
2023-03-27T15:14:13.578Z,1.33
2023-03-27T15:16:41.322Z,2.20
2023-03-27T15:19:19.567Z,1.73
2023-03-27T15:22:29.796Z,1.48
2023-03-27T15:25:03.098Z,1.70
2023-03-27T15:27:40.936Z,1.77
2023-03-27T15:30:17.955Z,1.63
2023-03-27T15:32:50.866Z,1.77
2023-03-27T15:35:28.070Z,1.70
2023-03-27T15:37:57.128Z,1.50
2023-03-27T15:40:41.828Z,2.08
2023-03-27T15:43:12.722Z,1.92
2023-03-27T15:46:00.059Z,2.35
2023-03-27T15:48:32.406Z,1.63
2023-03-27T15:51:01.628Z,1.58
2023-03-27T15:53:40.123Z,1.38
2023-03-27T15:56:34.116Z,1.48
2023-03-27T15:59:04.919Z,2.47
2023-03-27T16:01:38.358Z,1.52
2023-03-27T16:06:38.624Z,1.15
2023-03-27T16:09:18.957Z,1.42
2023-03-27T16:11:48.553Z,1.45
2023-03-27T16:14:19.624Z,1.27
2023-03-27T16:16:46.639Z,1.30
2023-03-27T16:19:14.216Z,1.63
2023-03-27T16:21:57.380Z,1.05
2023-03-27T16:24:24.576Z,1.52
2023-03-27T16:26:52.630Z,1.15
2023-03-27T16:29:21.568Z,1.40
2023-03-27T16:31:48.383Z,1.38
2023-03-27T16:34:22.164Z,1.67
2023-03-27T16:36:50.076Z,1.55
2023-03-27T16:39:17.257Z,1.17
2023-03-27T16:41:44.053Z,1.67
2023-03-27T16:44:11.156Z,1.33
2023-03-27T16:46:37.964Z,1.38
2023-03-27T16:49:07.919Z,1.33
2023-03-27T16:51:35.837Z,1.58
2023-03-27T16:54:02.960Z,1.67
2023-03-27T16:56:29.775Z,1.40
2023-03-27T16:58:56.914Z,1.55
2023-03-27T17:01:26.488Z,1.17
2023-03-27T17:03:53.652Z,1.42
2023-03-27T17:06:22.674Z,1.52
2023-03-27T17:08:55.211Z,1.10
2023-03-27T17:11:23.017Z,0.75
2023-03-27T17:13:50.998Z,1.52
2023-03-27T17:16:17.848Z,1.65
2023-03-27T17:18:45.329Z,1.80
2023-03-27T17:21:12.339Z,1.23
2023-03-27T17:23:42.107Z,1.58
2023-03-27T17:26:13.478Z,1.83
2023-03-27T17:28:42.076Z,1.60
2023-03-27T17:31:08.940Z,1.40
2023-03-27T17:33:36.493Z,1.42
2023-03-27T17:36:08.696Z,1.42
2023-03-27T17:38:38.142Z,1.50
2023-03-27T17:41:06.572Z,1.20
2023-03-27T17:43:36.659Z,1.15
2023-03-27T17:46:03.514Z,1.38
2023-03-27T17:48:33.223Z,1.55
2023-03-27T17:51:08.993Z,1.40
2023-03-27T17:53:39.408Z,0.90
2023-03-27T17:56:07.395Z,1.08
2023-03-27T17:58:34.927Z,1.35
2023-03-27T18:01:16.455Z,1.60
2023-03-27T18:03:44.586Z,1.63
2023-03-27T18:06:11.874Z,1.50
2023-03-27T18:08:38.964Z,1.30
2023-03-27T18:11:10.705Z,1.23
2023-03-27T18:13:38.885Z,1.25
2023-03-27T18:16:08.839Z,1.77
2023-03-27T18:18:39.790Z,1.63
2023-03-27T18:21:07.038Z,1.10
2023-03-27T18:23:35.153Z,2.08
2023-03-27T18:26:06.560Z,1.52
2023-03-27T18:28:34.400Z,1.48
2023-03-27T18:31:04.100Z,2.03
2023-03-27T18:33:31.952Z,1.58
2023-03-27T18:35:59.414Z,1.63
2023-03-27T18:38:27.866Z,2.22
2023-03-27T18:40:59.731Z,0.93
2023-03-27T18:43:27.170Z,1.63
2023-03-27T18:45:58.957Z,1.50
2023-03-27T18:48:27.173Z,1.65
2023-03-27T18:50:58.997Z,1.75
2023-03-27T18:53:26.516Z,1.35
2023-03-27T18:55:54.716Z,1.67
2023-03-27T18:58:24.332Z,1.33
2023-03-27T19:00:51.614Z,1.80
2023-03-27T19:03:21.052Z,1.27
2023-03-27T19:05:48.187Z,2.03
2023-03-27T19:08:17.934Z,1.52
2023-03-27T19:10:44.854Z,1.77
2023-03-27T19:13:12.098Z,1.15
2023-03-27T19:15:40.923Z,1.00
2023-03-27T19:18:08.197Z,1.15
2023-03-27T19:20:35.079Z,1.48
2023-03-27T19:23:02.222Z,2.03
2023-03-27T19:25:29.121Z,1.83
2023-03-27T19:27:56.204Z,1.50
2023-03-27T19:30:23.299Z,1.35
2023-03-27T19:32:51.783Z,1.38
2023-03-27T19:35:20.081Z,1.17
2023-03-27T19:37:47.664Z,1.15
2023-03-27T19:40:15.445Z,2.25
2023-03-27T19:42:42.541Z,1.20
2023-03-27T19:45:09.658Z,1.27
2023-03-27T19:47:37.354Z,1.65
2023-03-27T19:50:06.861Z,1.40
2023-03-27T19:52:34.231Z,0.98
2023-03-27T19:55:01.271Z,1.45
2023-03-27T19:57:28.325Z,0.68
2023-03-27T19:59:55.337Z,1.35
2023-03-27T20:02:22.446Z,1.05
2023-03-27T20:04:49.366Z,1.85
2023-03-27T20:07:16.437Z,1.02
2023-03-27T20:09:43.231Z,1.67
2023-03-27T20:12:12.312Z,1.50
2023-03-27T20:14:39.139Z,1.60
2023-03-27T20:17:12.218Z,1.17
2023-03-27T20:19:51.055Z,1.67
2023-03-27T20:22:20.677Z,1.35
2023-03-27T20:24:48.601Z,1.35
2023-03-27T20:27:19.765Z,0.80
2023-03-27T20:29:47.255Z,1.27
2023-03-27T20:32:15.058Z,1.10
2023-03-27T20:34:41.868Z,1.02
2023-03-27T20:37:12.059Z,1.45
2023-03-27T20:39:44.618Z,1.00
2023-03-27T20:42:16.344Z,1.42
2023-03-27T20:44:54.837Z,1.23
2023-03-27T20:47:22.500Z,1.15
2023-03-27T20:49:49.384Z,0.77
2023-03-27T20:52:22.798Z,1.15
2023-03-27T20:54:49.733Z,1.60
2023-03-27T20:57:16.897Z,1.20
2023-03-27T20:59:46.257Z,1.65
2023-03-27T21:02:19.376Z,1.35
2023-03-27T21:04:47.429Z,1.10
2023-03-27T21:07:15.868Z,1.10
2023-03-27T21:09:42.991Z,1.10
2023-03-27T21:12:10.272Z,1.05
2023-03-27T21:14:37.114Z,1.00
2023-03-27T21:17:04.244Z,0.70
2023-03-27T21:19:31.403Z,1.00
2023-03-27T21:21:58.482Z,1.00
2023-03-27T21:24:25.614Z,0.85
2023-03-27T21:26:52.652Z,1.08
2023-03-27T21:29:20.970Z,1.13
2023-03-27T21:31:48.199Z,1.67
2023-03-27T21:34:15.588Z,1.30
2023-03-27T21:36:42.690Z,1.00
2023-03-27T21:39:09.691Z,1.25
2023-03-27T21:41:36.860Z,1.10
2023-03-27T21:44:03.823Z,1.05
2023-03-27T21:46:31.102Z,1.83
2023-03-27T21:48:58.095Z,1.00
2023-03-27T21:51:25.653Z,1.02
2023-03-27T21:53:53.261Z,1.15
2023-03-27T21:56:20.352Z,1.23
2023-03-27T21:58:47.150Z,1.40
2023-03-27T22:01:15.183Z,1.15
2023-03-27T22:03:42.044Z,0.82
2023-03-27T22:06:12.564Z,1.20
2023-03-27T22:08:41.555Z,1.27
2023-03-27T22:11:09.348Z,1.20
2023-03-27T22:13:37.496Z,1.15
2023-03-27T22:16:13.854Z,1.45
2023-03-27T22:18:40.798Z,0.73
2023-03-27T22:21:22.703Z,1.05
2023-03-27T22:23:53.139Z,0.85
2023-03-27T22:26:23.438Z,0.90
2023-03-27T22:28:52.562Z,0.90
2023-03-27T22:31:20.563Z,0.90
2023-03-27T22:33:47.714Z,0.77
2023-03-27T22:36:14.824Z,0.95
2023-03-27T22:38:42.229Z,1.10
2023-03-27T22:41:11.575Z,1.00
2023-03-27T22:43:39.083Z,1.00
2023-03-27T22:46:08.670Z,1.35
2023-03-27T22:48:35.841Z,1.48
2023-03-27T22:51:03.443Z,1.00
2023-03-27T22:53:32.004Z,1.20
2023-03-27T22:56:00.308Z,1.42
2023-03-27T22:58:27.977Z,1.00
2023-03-27T23:00:55.616Z,1.10
2023-03-27T23:03:24.048Z,1.00
2023-03-27T23:05:51.485Z,1.58
2023-03-27T23:08:20.566Z,1.00
2023-03-27T23:10:58.158Z,1.27
2023-03-27T23:13:27.202Z,0.98
2023-03-27T23:15:54.868Z,1.42
2023-03-27T23:18:24.622Z,2.50
2023-03-27T23:21:02.976Z,2.17
2023-03-27T23:23:31.565Z,1.52
2023-03-27T23:25:59.047Z,1.45
2023-03-27T23:28:29.335Z,2.60
2023-03-27T23:31:01.233Z,1.05
2023-03-27T23:33:29.356Z,1.02
2023-03-27T23:36:06.542Z,1.55
2023-03-27T23:38:33.832Z,1.33
2023-03-27T23:41:02.399Z,1.05
2023-03-27T23:43:31.127Z,1.27
2023-03-27T23:46:02.126Z,1.35
2023-03-27T23:48:30.394Z,1.50
2023-03-27T23:50:58.185Z,1.10
2023-03-27T23:53:27.057Z,1.20
2023-03-27T23:55:56.230Z,1.23
2023-03-27T23:58:24.513Z,1.27
